<?xml version="1.0" encoding="UTF-8" standalone="no" ?>
<gpx xmlns="http://www.topografix.com/GPX/1/1" xmlns:xsi="http://www.w3.org/2001/XMLSchema-instance" xsi:schemaLocation="http://www.topografix.com/GPX/1/1 http://www.topografix.com/GPX/1/1/gpx.xsd" version="1.1" creator="VisuGPX - https://www.visugpx.com">
  <metadata>
    <name>boucles beaumont</name>
    <desc><![CDATA[boucles beaumont du périgord]]></desc>
  </metadata>
  <trk>
    <name><![CDATA[BBmt56]]></name>
    <trkseg>
      <trkpt lat="44.75095" lon="0.82335">
        <ele>84</ele>
        <time>2009-01-19T11:21:16Z</time>
      </trkpt>
      <trkpt lat="44.75108" lon="0.82315">
        <ele>96</ele>
        <time>2009-01-19T11:24:07Z</time>
      </trkpt>
      <trkpt lat="44.75108" lon="0.82285">
        <ele>87</ele>
        <time>2009-01-19T11:24:32Z</time>
      </trkpt>
      <trkpt lat="44.75105" lon="0.82258">
        <ele>82</ele>
        <time>2009-01-19T11:24:41Z</time>
      </trkpt>
      <trkpt lat="44.75105" lon="0.8223">
        <ele>86</ele>
        <time>2009-01-19T11:25:01Z</time>
      </trkpt>
      <trkpt lat="44.7511" lon="0.82203">
        <ele>86</ele>
        <time>2009-01-19T11:25:03Z</time>
      </trkpt>
      <trkpt lat="44.75115" lon="0.82175">
        <ele>86</ele>
        <time>2009-01-19T11:25:06Z</time>
      </trkpt>
      <trkpt lat="44.75123" lon="0.8214">
        <ele>85</ele>
        <time>2009-01-19T11:25:09Z</time>
      </trkpt>
      <trkpt lat="44.7513" lon="0.82105">
        <ele>84</ele>
        <time>2009-01-19T11:25:12Z</time>
      </trkpt>
      <trkpt lat="44.75135" lon="0.8208">
        <ele>84</ele>
        <time>2009-01-19T11:25:14Z</time>
      </trkpt>
      <trkpt lat="44.7514" lon="0.82055">
        <ele>85</ele>
        <time>2009-01-19T11:25:17Z</time>
      </trkpt>
      <trkpt lat="44.75143" lon="0.8202">
        <ele>84</ele>
        <time>2009-01-19T11:25:19Z</time>
      </trkpt>
      <trkpt lat="44.75143" lon="0.81985">
        <ele>84</ele>
        <time>2009-01-19T11:25:22Z</time>
      </trkpt>
      <trkpt lat="44.75143" lon="0.81953">
        <ele>83</ele>
        <time>2009-01-19T11:25:25Z</time>
      </trkpt>
      <trkpt lat="44.7514" lon="0.81918">
        <ele>82</ele>
        <time>2009-01-19T11:25:29Z</time>
      </trkpt>
      <trkpt lat="44.7514" lon="0.81883">
        <ele>80</ele>
        <time>2009-01-19T11:25:31Z</time>
      </trkpt>
      <trkpt lat="44.75138" lon="0.81845">
        <ele>80</ele>
        <time>2009-01-19T11:25:35Z</time>
      </trkpt>
      <trkpt lat="44.75138" lon="0.81805">
        <ele>80</ele>
        <time>2009-01-19T11:25:37Z</time>
      </trkpt>
      <trkpt lat="44.75138" lon="0.81768">
        <ele>80</ele>
        <time>2009-01-19T11:25:40Z</time>
      </trkpt>
      <trkpt lat="44.75138" lon="0.8173">
        <ele>80</ele>
        <time>2009-01-19T11:25:43Z</time>
      </trkpt>
      <trkpt lat="44.75138" lon="0.81698">
        <ele>82</ele>
        <time>2009-01-19T11:25:46Z</time>
      </trkpt>
      <trkpt lat="44.75138" lon="0.81668">
        <ele>83</ele>
        <time>2009-01-19T11:25:49Z</time>
      </trkpt>
      <trkpt lat="44.75138" lon="0.8164">
        <ele>81</ele>
        <time>2009-01-19T11:26:02Z</time>
      </trkpt>
      <trkpt lat="44.75153" lon="0.81625">
        <ele>80</ele>
        <time>2009-01-19T11:26:06Z</time>
      </trkpt>
      <trkpt lat="44.75173" lon="0.81615">
        <ele>82</ele>
        <time>2009-01-19T11:26:11Z</time>
      </trkpt>
      <trkpt lat="44.7519" lon="0.816">
        <ele>82</ele>
        <time>2009-01-19T11:26:14Z</time>
      </trkpt>
      <trkpt lat="44.75205" lon="0.81585">
        <ele>84</ele>
        <time>2009-01-19T11:26:24Z</time>
      </trkpt>
      <trkpt lat="44.75223" lon="0.81573">
        <ele>92</ele>
        <time>2009-01-19T11:26:31Z</time>
      </trkpt>
      <trkpt lat="44.7524" lon="0.81558">
        <ele>99</ele>
        <time>2009-01-19T11:26:37Z</time>
      </trkpt>
      <trkpt lat="44.75253" lon="0.81535">
        <ele>102</ele>
        <time>2009-01-19T11:26:41Z</time>
      </trkpt>
      <trkpt lat="44.75258" lon="0.8151">
        <ele>106</ele>
        <time>2009-01-19T11:26:46Z</time>
      </trkpt>
      <trkpt lat="44.75265" lon="0.81485">
        <ele>110</ele>
        <time>2009-01-19T11:26:53Z</time>
      </trkpt>
      <trkpt lat="44.75278" lon="0.81463">
        <ele>122</ele>
        <time>2009-01-19T11:26:59Z</time>
      </trkpt>
      <trkpt lat="44.75295" lon="0.8144">
        <ele>125</ele>
        <time>2009-01-19T11:27:02Z</time>
      </trkpt>
      <trkpt lat="44.75318" lon="0.81423">
        <ele>132</ele>
        <time>2009-01-19T11:27:06Z</time>
      </trkpt>
      <trkpt lat="44.75335" lon="0.8141">
        <ele>137</ele>
        <time>2009-01-19T11:27:10Z</time>
      </trkpt>
      <trkpt lat="44.7535" lon="0.81395">
        <ele>141</ele>
        <time>2009-01-19T11:27:13Z</time>
      </trkpt>
      <trkpt lat="44.75358" lon="0.8137">
        <ele>141</ele>
        <time>2009-01-19T11:27:16Z</time>
      </trkpt>
      <trkpt lat="44.75368" lon="0.81348">
        <ele>143</ele>
        <time>2009-01-19T11:27:20Z</time>
      </trkpt>
      <trkpt lat="44.75373" lon="0.8131">
        <ele>139</ele>
        <time>2009-01-19T11:27:24Z</time>
      </trkpt>
      <trkpt lat="44.75375" lon="0.8128">
        <ele>133</ele>
        <time>2009-01-19T11:27:27Z</time>
      </trkpt>
      <trkpt lat="44.7539" lon="0.81263">
        <ele>129</ele>
        <time>2009-01-19T11:27:31Z</time>
      </trkpt>
      <trkpt lat="44.7541" lon="0.81243">
        <ele>127</ele>
        <time>2009-01-19T11:27:37Z</time>
      </trkpt>
      <trkpt lat="44.75415" lon="0.81215">
        <ele>122</ele>
        <time>2009-01-19T11:27:40Z</time>
      </trkpt>
      <trkpt lat="44.7541" lon="0.8119">
        <ele>89</ele>
        <time>2009-01-19T11:27:54Z</time>
      </trkpt>
      <trkpt lat="44.7542" lon="0.81168">
        <ele>87</ele>
        <time>2009-01-19T11:28:12Z</time>
      </trkpt>
      <trkpt lat="44.75415" lon="0.81143">
        <ele>90</ele>
        <time>2009-01-19T11:28:23Z</time>
      </trkpt>
      <trkpt lat="44.75832" lon="0.8079">
        <ele>79</ele>
        <time>2009-06-18T16:43:36Z</time>
      </trkpt>
      <trkpt lat="44.75862" lon="0.80815">
        <ele>80</ele>
        <time>2009-06-18T16:43:36Z</time>
      </trkpt>
      <trkpt lat="44.75948" lon="0.80715">
        <ele>102</ele>
        <time>2009-01-19T11:43:37Z</time>
      </trkpt>
      <trkpt lat="44.75938" lon="0.80688">
        <ele>103</ele>
        <time>2009-01-19T11:43:55Z</time>
      </trkpt>
      <trkpt lat="44.7593" lon="0.80663">
        <ele>102</ele>
        <time>2009-01-19T11:44:16Z</time>
      </trkpt>
      <trkpt lat="44.7594" lon="0.80635">
        <ele>104</ele>
        <time>2009-01-19T11:44:21Z</time>
      </trkpt>
      <trkpt lat="44.7595" lon="0.8061">
        <ele>105</ele>
        <time>2009-01-19T11:44:24Z</time>
      </trkpt>
      <trkpt lat="44.75955" lon="0.80583">
        <ele>107</ele>
        <time>2009-01-19T11:44:27Z</time>
      </trkpt>
      <trkpt lat="44.7596" lon="0.80558">
        <ele>108</ele>
        <time>2009-01-19T11:44:30Z</time>
      </trkpt>
      <trkpt lat="44.75975" lon="0.8054">
        <ele>111</ele>
        <time>2009-01-19T11:44:34Z</time>
      </trkpt>
      <trkpt lat="44.75993" lon="0.80528">
        <ele>113</ele>
        <time>2009-01-19T11:44:37Z</time>
      </trkpt>
      <trkpt lat="44.7601" lon="0.80518">
        <ele>114</ele>
        <time>2009-01-19T11:44:43Z</time>
      </trkpt>
      <trkpt lat="44.7603" lon="0.8051">
        <ele>108</ele>
        <time>2009-01-19T11:44:50Z</time>
      </trkpt>
      <trkpt lat="44.76053" lon="0.80508">
        <ele>105</ele>
        <time>2009-01-19T11:44:53Z</time>
      </trkpt>
      <trkpt lat="44.76075" lon="0.805">
        <ele>103</ele>
        <time>2009-01-19T11:44:56Z</time>
      </trkpt>
      <trkpt lat="44.76098" lon="0.8049">
        <ele>101</ele>
        <time>2009-01-19T11:44:59Z</time>
      </trkpt>
      <trkpt lat="44.76118" lon="0.80478">
        <ele>104</ele>
        <time>2009-01-19T11:45:02Z</time>
      </trkpt>
      <trkpt lat="44.7614" lon="0.8047">
        <ele>104</ele>
        <time>2009-01-19T11:45:05Z</time>
      </trkpt>
      <trkpt lat="44.76165" lon="0.80478">
        <ele>102</ele>
        <time>2009-01-19T11:45:10Z</time>
      </trkpt>
      <trkpt lat="44.76188" lon="0.80485">
        <ele>100</ele>
        <time>2009-01-19T11:45:12Z</time>
      </trkpt>
      <trkpt lat="44.76208" lon="0.80478">
        <ele>96</ele>
        <time>2009-01-19T11:45:21Z</time>
      </trkpt>
      <trkpt lat="44.76225" lon="0.80465">
        <ele>94</ele>
        <time>2009-01-19T11:45:25Z</time>
      </trkpt>
      <trkpt lat="44.76243" lon="0.80453">
        <ele>93</ele>
        <time>2009-01-19T11:45:30Z</time>
      </trkpt>
      <trkpt lat="44.7626" lon="0.8044">
        <ele>92</ele>
        <time>2009-01-19T11:45:33Z</time>
      </trkpt>
      <trkpt lat="44.76278" lon="0.80423">
        <ele>86</ele>
        <time>2009-01-19T11:45:39Z</time>
      </trkpt>
      <trkpt lat="44.76283" lon="0.8039">
        <ele>84</ele>
        <time>2009-01-19T11:45:45Z</time>
      </trkpt>
      <trkpt lat="44.76288" lon="0.80365">
        <ele>81</ele>
        <time>2009-01-19T11:45:53Z</time>
      </trkpt>
      <trkpt lat="44.76303" lon="0.80355">
        <ele>81</ele>
        <time>2009-06-18T16:43:36Z</time>
      </trkpt>
      <trkpt lat="44.76911" lon="0.79865">
        <ele>70</ele>
        <time>2009-01-19T11:46:01Z</time>
      </trkpt>
    </trkseg>
  </trk>
</gpx>